sensor_id;sensor_type;location;lat;lon;timestamp;pressure;altitude;pressure_sealevel;temperature;humidity
21760;BME280;11041;50.854;20.580;2023-02-28T00:01:31;100027.63;;;-1.12;69.50
21760;BME280;11041;50.854;20.580;2023-02-28T00:03:59;100027.81;;;-1.14;70.52
21760;BME280;11041;50.854;20.580;2023-02-28T00:06:26;100021.41;;;-1.13;70.26
21760;BME280;11041;50.854;20.580;2023-02-28T00:08:53;100029.50;;;-1.13;70.14
21760;BME280;11041;50.854;20.580;2023-02-28T00:11:21;100033.84;;;-1.12;70.06
21760;BME280;11041;50.854;20.580;2023-02-28T00:13:48;100026.38;;;-1.16;69.64
21760;BME280;11041;50.854;20.580;2023-02-28T00:16:21;100025.53;;;-1.17;70.39
21760;BME280;11041;50.854;20.580;2023-02-28T00:18:49;100020.38;;;-1.25;69.96
21760;BME280;11041;50.854;20.580;2023-02-28T00:21:17;100029.06;;;-1.23;70.46
21760;BME280;11041;50.854;20.580;2023-02-28T00:23:44;100024.91;;;-1.25;70.12
21760;BME280;11041;50.854;20.580;2023-02-28T00:26:12;100025.53;;;-1.30;70.19
21760;BME280;11041;50.854;20.580;2023-02-28T00:28:38;100021.16;;;-1.38;70.20
21760;BME280;11041;50.854;20.580;2023-02-28T00:31:05;100028.88;;;-1.35;70.30
21760;BME280;11041;50.854;20.580;2023-02-28T00:33:32;100023.47;;;-1.41;71.09
21760;BME280;11041;50.854;20.580;2023-02-28T00:36:09;100016.41;;;-1.49;70.95
21760;BME280;11041;50.854;20.580;2023-02-28T00:38:38;100032.97;;;-1.52;71.23
21760;BME280;11041;50.854;20.580;2023-02-28T00:41:06;100027.38;;;-1.57;71.43
21760;BME280;11041;50.854;20.580;2023-02-28T00:43:36;100021.75;;;-1.69;71.98
21760;BME280;11041;50.854;20.580;2023-02-28T00:46:04;100031.88;;;-1.71;72.43
21760;BME280;11041;50.854;20.580;2023-02-28T00:48:31;100028.34;;;-1.78;72.66
21760;BME280;11041;50.854;20.580;2023-02-28T00:50:57;100022.09;;;-1.85;72.68
21760;BME280;11041;50.854;20.580;2023-02-28T00:53:24;100028.53;;;-1.86;73.12
21760;BME280;11041;50.854;20.580;2023-02-28T00:55:51;100037.03;;;-1.89;73.20
21760;BME280;11041;50.854;20.580;2023-02-28T00:58:17;100030.56;;;-1.95;73.09
21760;BME280;11041;50.854;20.580;2023-02-28T01:00:44;100041.56;;;-1.97;73.57
21760;BME280;11041;50.854;20.580;2023-02-28T01:03:17;100035.38;;;-1.97;73.48
21760;BME280;11041;50.854;20.580;2023-02-28T01:05:44;100035.75;;;-2.00;73.90
21760;BME280;11041;50.854;20.580;2023-02-28T01:08:10;100039.25;;;-2.00;73.86
21760;BME280;11041;50.854;20.580;2023-02-28T01:10:37;100038.25;;;-1.99;73.81
21760;BME280;11041;50.854;20.580;2023-02-28T01:13:05;100040.94;;;-1.99;73.84
21760;BME280;11041;50.854;20.580;2023-02-28T01:15:32;100024.34;;;-2.02;73.71
21760;BME280;11041;50.854;20.580;2023-02-28T01:17:59;100020.19;;;-2.05;73.73
21760;BME280;11041;50.854;20.580;2023-02-28T01:20:25;100030.56;;;-2.02;73.94
21760;BME280;11041;50.854;20.580;2023-02-28T01:22:52;100027.88;;;-2.02;74.01
21760;BME280;11041;50.854;20.580;2023-02-28T01:25:18;100023.09;;;-2.06;74.63
21760;BME280;11041;50.854;20.580;2023-02-28T01:27:45;100027.03;;;-2.02;74.78
21760;BME280;11041;50.854;20.580;2023-02-28T01:30:11;100031.59;;;-2.03;74.16
21760;BME280;11041;50.854;20.580;2023-02-28T01:32:38;100023.94;;;-2.06;74.34
21760;BME280;11041;50.854;20.580;2023-02-28T01:35:05;100032.66;;;-1.97;75.07
21760;BME280;11041;50.854;20.580;2023-02-28T01:37:31;100031.00;;;-1.98;74.56
21760;BME280;11041;50.854;20.580;2023-02-28T01:39:58;100026.25;;;-1.96;74.77
21760;BME280;11041;50.854;20.580;2023-02-28T01:42:24;100020.22;;;-1.98;75.36
21760;BME280;11041;50.854;20.580;2023-02-28T01:47:59;100023.69;;;-2.11;75.82
21760;BME280;11041;50.854;20.580;2023-02-28T01:50:32;100014.16;;;-2.13;75.78
21760;BME280;11041;50.854;20.580;2023-02-28T01:53:08;100009.38;;;-2.18;76.78
21760;BME280;11041;50.854;20.580;2023-02-28T01:55:37;100024.72;;;-2.19;77.15
21760;BME280;11041;50.854;20.580;2023-02-28T01:58:07;100022.88;;;-2.11;76.83
21760;BME280;11041;50.854;20.580;2023-02-28T02:00:35;100022.25;;;-2.07;76.65
21760;BME280;11041;50.854;20.580;2023-02-28T02:03:14;100011.28;;;-2.05;76.56
21760;BME280;11041;50.854;20.580;2023-02-28T02:05:46;100028.75;;;-1.95;76.52
21760;BME280;11041;50.854;20.580;2023-02-28T02:08:23;100034.53;;;-1.91;76.36
21760;BME280;11041;50.854;20.580;2023-02-28T02:11:03;100016.28;;;-1.96;76.55
21760;BME280;11041;50.854;20.580;2023-02-28T02:16:57;100032.88;;;-1.85;75.78
21760;BME280;11041;50.854;20.580;2023-02-28T02:29:08;100040.50;;;-2.09;77.30
21760;BME280;11041;50.854;20.580;2023-02-28T02:35:31;100040.50;;;-2.09;77.21
21760;BME280;11041;50.854;20.580;2023-02-28T02:41:51;100044.47;;;-1.98;76.73
21760;BME280;11041;50.854;20.580;2023-02-28T02:44:24;100038.25;;;-1.99;76.76
21760;BME280;11041;50.854;20.580;2023-02-28T02:47:08;100042.59;;;-2.04;76.49
21760;BME280;11041;50.854;20.580;2023-02-28T02:49:40;100042.16;;;-2.08;76.69
21760;BME280;11041;50.854;20.580;2023-02-28T02:52:12;100051.50;;;-2.04;77.46
21760;BME280;11041;50.854;20.580;2023-02-28T02:54:45;100038.19;;;-2.12;78.03
21760;BME280;11041;50.854;20.580;2023-02-28T02:57:25;100044.63;;;-2.13;77.22
21760;BME280;11041;50.854;20.580;2023-02-28T02:59:56;100037.91;;;-2.30;77.74
21760;BME280;11041;50.854;20.580;2023-02-28T03:02:27;100046.34;;;-2.40;77.77
21760;BME280;11041;50.854;20.580;2023-02-28T03:05:05;100051.94;;;-2.42;78.49
21760;BME280;11041;50.854;20.580;2023-02-28T03:07:32;100046.53;;;-2.42;78.03
21760;BME280;11041;50.854;20.580;2023-02-28T03:09:59;100030.78;;;-2.45;78.97
21760;BME280;11041;50.854;20.580;2023-02-28T03:12:41;100048.44;;;-2.36;78.79
21760;BME280;11041;50.854;20.580;2023-02-28T03:15:27;100033.53;;;-2.38;78.05
21760;BME280;11041;50.854;20.580;2023-02-28T03:18:19;100047.63;;;-2.29;77.52
21760;BME280;11041;50.854;20.580;2023-02-28T03:21:27;100032.91;;;-2.40;77.89
21760;BME280;11041;50.854;20.580;2023-02-28T03:24:08;100043.03;;;-2.42;77.66
21760;BME280;11041;50.854;20.580;2023-02-28T03:26:46;100040.53;;;-2.44;78.21
21760;BME280;11041;50.854;20.580;2023-02-28T03:29:30;100044.88;;;-2.43;78.61
21760;BME280;11041;50.854;20.580;2023-02-28T03:33:12;100041.16;;;-2.42;78.30
21760;BME280;11041;50.854;20.580;2023-02-28T03:35:51;100039.06;;;-2.46;78.06
21760;BME280;11041;50.854;20.580;2023-02-28T03:38:33;100041.75;;;-2.46;78.04
21760;BME280;11041;50.854;20.580;2023-02-28T03:41:21;100035.72;;;-2.48;77.32
21760;BME280;11041;50.854;20.580;2023-02-28T03:44:01;100040.28;;;-2.49;77.49
21760;BME280;11041;50.854;20.580;2023-02-28T03:46:35;100038.63;;;-2.50;76.70
21760;BME280;11041;50.854;20.580;2023-02-28T03:49:27;100046.72;;;-2.50;76.97
21760;BME280;11041;50.854;20.580;2023-02-28T03:52:01;100034.44;;;-2.59;76.99
21760;BME280;11041;50.854;20.580;2023-02-28T03:54:35;100043.53;;;-2.60;77.02
21760;BME280;11041;50.854;20.580;2023-02-28T03:57:27;100048.91;;;-2.60;76.91
21760;BME280;11041;50.854;20.580;2023-02-28T04:00:26;100042.88;;;-2.69;76.74
21760;BME280;11041;50.854;20.580;2023-02-28T04:02:55;100038.72;;;-2.71;77.62
21760;BME280;11041;50.854;20.580;2023-02-28T04:05:23;100042.66;;;-2.67;76.87
21760;BME280;11041;50.854;20.580;2023-02-28T04:07:50;100048.25;;;-2.69;77.18
21760;BME280;11041;50.854;20.580;2023-02-28T04:10:17;100048.38;;;-2.77;76.78
21760;BME280;11041;50.854;20.580;2023-02-28T04:12:43;100047.31;;;-2.83;77.01
21760;BME280;11041;50.854;20.580;2023-02-28T04:15:10;100037.97;;;-2.87;77.32
21760;BME280;11041;50.854;20.580;2023-02-28T04:17:37;100039.59;;;-2.92;77.06
21760;BME280;11041;50.854;20.580;2023-02-28T04:20:04;100031.69;;;-3.01;77.65
21760;BME280;11041;50.854;20.580;2023-02-28T04:22:36;100045.31;;;-3.02;77.43
21760;BME280;11041;50.854;20.580;2023-02-28T04:25:04;100042.16;;;-3.06;77.33
21760;BME280;11041;50.854;20.580;2023-02-28T04:27:31;100045.91;;;-3.07;77.86
21760;BME280;11041;50.854;20.580;2023-02-28T04:29:58;100055.81;;;-3.07;77.16
21760;BME280;11041;50.854;20.580;2023-02-28T04:32:24;100044.44;;;-3.09;77.65
21760;BME280;11041;50.854;20.580;2023-02-28T04:34:51;100053.72;;;-3.12;77.91
21760;BME280;11041;50.854;20.580;2023-02-28T04:37:17;100065.47;;;-3.13;77.72
21760;BME280;11041;50.854;20.580;2023-02-28T04:39:44;100055.94;;;-3.15;77.93
21760;BME280;11041;50.854;20.580;2023-02-28T04:42:12;100048.69;;;-3.22;77.75
21760;BME280;11041;50.854;20.580;2023-02-28T04:44:39;100062.38;;;-3.16;78.08
21760;BME280;11041;50.854;20.580;2023-02-28T04:47:06;100060.09;;;-3.13;77.78
21760;BME280;11041;50.854;20.580;2023-02-28T04:49:33;100055.34;;;-3.17;77.74
21760;BME280;11041;50.854;20.580;2023-02-28T04:51:59;100060.31;;;-3.14;77.65
21760;BME280;11041;50.854;20.580;2023-02-28T04:54:26;100061.97;;;-3.13;77.55
21760;BME280;11041;50.854;20.580;2023-02-28T04:56:52;100057.81;;;-3.16;78.11
21760;BME280;11041;50.854;20.580;2023-02-28T04:59:19;100052.59;;;-3.24;77.74
21760;BME280;11041;50.854;20.580;2023-02-28T05:01:49;100067.28;;;-3.20;78.17
21760;BME280;11041;50.854;20.580;2023-02-28T05:04:16;100063.69;;;-3.27;77.84
21760;BME280;11041;50.854;20.580;2023-02-28T05:06:43;100070.56;;;-3.25;77.75
21760;BME280;11041;50.854;20.580;2023-02-28T05:09:10;100071.34;;;-3.31;77.20
21760;BME280;11041;50.854;20.580;2023-02-28T05:11:39;100074.66;;;-3.29;77.30
21760;BME280;11041;50.854;20.580;2023-02-28T05:14:13;100082.91;;;-3.30;77.78
21760;BME280;11041;50.854;20.580;2023-02-28T05:16:40;100077.09;;;-3.34;77.53
21760;BME280;11041;50.854;20.580;2023-02-28T05:19:06;100075.16;;;-3.40;77.59
21760;BME280;11041;50.854;20.580;2023-02-28T05:21:41;100078.88;;;-3.41;78.15
21760;BME280;11041;50.854;20.580;2023-02-28T05:24:14;100075.75;;;-3.45;77.82
21760;BME280;11041;50.854;20.580;2023-02-28T05:26:43;100090.97;;;-3.52;77.76
21760;BME280;11041;50.854;20.580;2023-02-28T05:29:10;100079.06;;;-3.64;78.58
21760;BME280;11041;50.854;20.580;2023-02-28T05:31:38;100084.81;;;-3.67;78.93
21760;BME280;11041;50.854;20.580;2023-02-28T05:34:05;100094.25;;;-3.71;78.93
21760;BME280;11041;50.854;20.580;2023-02-28T05:36:32;100108.78;;;-3.66;79.23
21760;BME280;11041;50.854;20.580;2023-02-28T05:38:59;100095.34;;;-3.66;79.01
21760;BME280;11041;50.854;20.580;2023-02-28T05:41:25;100096.00;;;-3.64;79.26
21760;BME280;11041;50.854;20.580;2023-02-28T05:43:52;100106.75;;;-3.64;78.46
21760;BME280;11041;50.854;20.580;2023-02-28T05:46:18;100102.53;;;-3.73;78.80
21760;BME280;11041;50.854;20.580;2023-02-28T05:48:47;100104.94;;;-3.78;78.55
21760;BME280;11041;50.854;20.580;2023-02-28T05:51:14;100106.13;;;-3.80;78.87
21760;BME280;11041;50.854;20.580;2023-02-28T05:53:41;100105.88;;;-3.86;79.41
21760;BME280;11041;50.854;20.580;2023-02-28T05:56:08;100120.13;;;-3.85;79.30
21760;BME280;11041;50.854;20.580;2023-02-28T05:58:34;100118.22;;;-3.91;79.26
21760;BME280;11041;50.854;20.580;2023-02-28T06:01:24;100113.00;;;-3.93;79.78
21760;BME280;11041;50.854;20.580;2023-02-28T06:03:51;100129.78;;;-3.91;79.81
21760;BME280;11041;50.854;20.580;2023-02-28T06:06:17;100135.97;;;-3.90;79.98
21760;BME280;11041;50.854;20.580;2023-02-28T06:08:44;100135.91;;;-3.97;79.79
21760;BME280;11041;50.854;20.580;2023-02-28T06:11:11;100145.78;;;-3.97;80.21
21760;BME280;11041;50.854;20.580;2023-02-28T06:13:38;100144.31;;;-4.00;80.28
21760;BME280;11041;50.854;20.580;2023-02-28T06:16:05;100141.44;;;-3.98;81.12
21760;BME280;11041;50.854;20.580;2023-02-28T06:18:32;100151.09;;;-3.89;80.99
21760;BME280;11041;50.854;20.580;2023-02-28T06:20:59;100137.38;;;-3.94;80.70
21760;BME280;11041;50.854;20.580;2023-02-28T06:23:26;100159.19;;;-3.82;81.14
21760;BME280;11041;50.854;20.580;2023-02-28T06:25:52;100163.19;;;-3.78;81.19
21760;BME280;11041;50.854;20.580;2023-02-28T06:28:19;100158.19;;;-3.81;81.00
21760;BME280;11041;50.854;20.580;2023-02-28T06:30:46;100163.28;;;-3.72;80.97
21760;BME280;11041;50.854;20.580;2023-02-28T06:33:12;100166.22;;;-3.67;81.54
21760;BME280;11041;50.854;20.580;2023-02-28T06:35:39;100168.19;;;-3.60;81.40
21760;BME280;11041;50.854;20.580;2023-02-28T06:38:05;100161.94;;;-3.61;80.77
21760;BME280;11041;50.854;20.580;2023-02-28T06:40:32;100161.66;;;-3.51;80.68
21760;BME280;11041;50.854;20.580;2023-02-28T06:43:01;100157.31;;;-3.52;81.22
21760;BME280;11041;50.854;20.580;2023-02-28T06:45:28;100153.22;;;-3.48;80.83
21760;BME280;11041;50.854;20.580;2023-02-28T06:47:55;100161.16;;;-3.40;80.89
21760;BME280;11041;50.854;20.580;2023-02-28T06:50:21;100170.03;;;-3.25;80.91
21760;BME280;11041;50.854;20.580;2023-02-28T06:52:48;100160.75;;;-3.22;81.30
21760;BME280;11041;50.854;20.580;2023-02-28T06:55:14;100154.41;;;-3.14;81.50
21760;BME280;11041;50.854;20.580;2023-02-28T06:57:41;100166.75;;;-2.98;80.90
21760;BME280;11041;50.854;20.580;2023-02-28T07:00:09;100156.06;;;-2.92;80.68
21760;BME280;11041;50.854;20.580;2023-02-28T07:02:37;100152.88;;;-2.81;81.02
21760;BME280;11041;50.854;20.580;2023-02-28T07:05:07;100155.88;;;-2.69;81.01
21760;BME280;11041;50.854;20.580;2023-02-28T07:07:34;100167.38;;;-2.53;80.05
21760;BME280;11041;50.854;20.580;2023-02-28T07:10:02;100167.84;;;-2.43;79.33
21760;BME280;11041;50.854;20.580;2023-02-28T07:12:29;100147.19;;;-2.43;77.73
21760;BME280;11041;50.854;20.580;2023-02-28T07:14:55;100165.09;;;-2.28;78.24
21760;BME280;11041;50.854;20.580;2023-02-28T07:17:22;100164.75;;;-2.19;78.03
21760;BME280;11041;50.854;20.580;2023-02-28T07:19:49;100152.34;;;-2.13;77.45
21760;BME280;11041;50.854;20.580;2023-02-28T07:22:16;100165.00;;;-2.07;74.35
21760;BME280;11041;50.854;20.580;2023-02-28T07:24:43;100172.97;;;-1.92;75.11
21760;BME280;11041;50.854;20.580;2023-02-28T07:27:10;100155.34;;;-1.95;72.78
21760;BME280;11041;50.854;20.580;2023-02-28T07:29:36;100168.22;;;-1.83;73.12
21760;BME280;11041;50.854;20.580;2023-02-28T07:32:04;100155.41;;;-1.81;72.13
21760;BME280;11041;50.854;20.580;2023-02-28T07:34:31;100175.13;;;-1.74;70.73
21760;BME280;11041;50.854;20.580;2023-02-28T07:36:57;100168.09;;;-1.68;69.98
21760;BME280;11041;50.854;20.580;2023-02-28T07:39:24;100163.16;;;-1.65;70.54
21760;BME280;11041;50.854;20.580;2023-02-28T07:41:51;100165.66;;;-1.57;69.79
21760;BME280;11041;50.854;20.580;2023-02-28T07:44:17;100154.28;;;-1.59;69.14
21760;BME280;11041;50.854;20.580;2023-02-28T07:46:44;100170.84;;;-1.55;67.71
21760;BME280;11041;50.854;20.580;2023-02-28T07:49:11;100162.78;;;-1.55;68.27
21760;BME280;11041;50.854;20.580;2023-02-28T07:51:37;100159.47;;;-1.51;68.33
21760;BME280;11041;50.854;20.580;2023-02-28T07:54:04;100164.69;;;-1.42;67.81
21760;BME280;11041;50.854;20.580;2023-02-28T07:56:31;100159.50;;;-1.37;67.07
21760;BME280;11041;50.854;20.580;2023-02-28T07:58:57;100156.59;;;-1.42;64.74
21760;BME280;11041;50.854;20.580;2023-02-28T08:01:24;100157.66;;;-1.37;65.59
21760;BME280;11041;50.854;20.580;2023-02-28T08:03:50;100156.81;;;-1.37;66.23
21760;BME280;11041;50.854;20.580;2023-02-28T08:06:21;100160.38;;;-1.37;64.32
21760;BME280;11041;50.854;20.580;2023-02-28T08:08:48;100147.50;;;-1.35;65.48
21760;BME280;11041;50.854;20.580;2023-02-28T08:11:16;100159.13;;;-1.21;63.94
21760;BME280;11041;50.854;20.580;2023-02-28T08:13:44;100145.63;;;-1.27;61.81
21760;BME280;11041;50.854;20.580;2023-02-28T08:16:14;100145.66;;;-1.21;61.97
21760;BME280;11041;50.854;20.580;2023-02-28T08:18:52;100147.34;;;-1.20;60.47
21760;BME280;11041;50.854;20.580;2023-02-28T08:21:20;100153.56;;;-1.19;60.36
21760;BME280;11041;50.854;20.580;2023-02-28T08:23:51;100146.50;;;-1.27;59.82
21760;BME280;11041;50.854;20.580;2023-02-28T08:26:19;100159.78;;;-1.19;60.39
21760;BME280;11041;50.854;20.580;2023-02-28T08:28:46;100161.03;;;-1.15;61.06
21760;BME280;11041;50.854;20.580;2023-02-28T08:31:16;100157.50;;;-1.09;60.38
21760;BME280;11041;50.854;20.580;2023-02-28T08:33:43;100153.16;;;-0.96;60.51
21760;BME280;11041;50.854;20.580;2023-02-28T08:36:11;100157.97;;;-0.85;59.14
21760;BME280;11041;50.854;20.580;2023-02-28T08:38:38;100148.63;;;-0.82;58.93
21760;BME280;11041;50.854;20.580;2023-02-28T08:41:09;100142.41;;;-0.76;59.04
21760;BME280;11041;50.854;20.580;2023-02-28T08:43:37;100157.78;;;-0.63;59.41
21760;BME280;11041;50.854;20.580;2023-02-28T08:46:05;100145.13;;;-0.70;58.38
21760;BME280;11041;50.854;20.580;2023-02-28T08:48:34;100152.97;;;-0.75;58.45
21760;BME280;11041;50.854;20.580;2023-02-28T08:51:13;100149.88;;;-0.78;58.65
21760;BME280;11041;50.854;20.580;2023-02-28T08:53:40;100142.41;;;-0.83;58.77
21760;BME280;11041;50.854;20.580;2023-02-28T08:56:11;100150.28;;;-0.75;59.59
21760;BME280;11041;50.854;20.580;2023-02-28T08:58:38;100141.56;;;-0.70;59.50
21760;BME280;11041;50.854;20.580;2023-02-28T09:01:18;100136.16;;;-0.70;59.16
21760;BME280;11041;50.854;20.580;2023-02-28T09:03:46;100151.94;;;-0.60;60.32
21760;BME280;11041;50.854;20.580;2023-02-28T09:06:15;100151.94;;;-0.60;59.81
21760;BME280;11041;50.854;20.580;2023-02-28T09:08:43;100150.09;;;-0.60;59.67
21760;BME280;11041;50.854;20.580;2023-02-28T09:11:10;100146.97;;;-0.63;59.16
21760;BME280;11041;50.854;20.580;2023-02-28T09:13:38;100151.97;;;-0.54;60.77
21760;BME280;11041;50.854;20.580;2023-02-28T09:16:09;100133.47;;;-0.44;60.13
21760;BME280;11041;50.854;20.580;2023-02-28T09:18:37;100156.13;;;-0.38;59.51
21760;BME280;11041;50.854;20.580;2023-02-28T09:21:11;100151.72;;;-0.26;59.93
21760;BME280;11041;50.854;20.580;2023-02-28T09:23:42;100150.47;;;-0.30;59.44
21760;BME280;11041;50.854;20.580;2023-02-28T09:26:22;100153.59;;;-0.33;57.82
21760;BME280;11041;50.854;20.580;2023-02-28T09:28:50;100141.97;;;-0.33;59.32
21760;BME280;11041;50.854;20.580;2023-02-28T09:31:24;100137.59;;;-0.41;59.08
21760;BME280;11041;50.854;20.580;2023-02-28T09:33:53;100139.72;;;-0.43;60.01
21760;BME280;11041;50.854;20.580;2023-02-28T09:36:21;100139.28;;;-0.33;59.57
21760;BME280;11041;50.854;20.580;2023-02-28T09:38:48;100134.69;;;-0.26;60.19
21760;BME280;11041;50.854;20.580;2023-02-28T09:41:36;100127.81;;;-0.15;60.18
21760;BME280;11041;50.854;20.580;2023-02-28T09:44:04;100122.38;;;-0.02;60.03
21760;BME280;11041;50.854;20.580;2023-02-28T09:46:40;100119.44;;;0.06;59.01
21760;BME280;11041;50.854;20.580;2023-02-28T09:49:19;100120.66;;;0.17;56.36
21760;BME280;11041;50.854;20.580;2023-02-28T09:52:05;100123.56;;;0.15;58.75
21760;BME280;11041;50.854;20.580;2023-02-28T09:54:36;100115.81;;;0.26;58.58
21760;BME280;11041;50.854;20.580;2023-02-28T10:00:14;100132.22;;;0.31;56.96
21760;BME280;11041;50.854;20.580;2023-02-28T10:06:19;100126.03;;;0.24;56.61
21760;BME280;11041;50.854;20.580;2023-02-28T10:09:11;100113.41;;;0.04;56.34
21760;BME280;11041;50.854;20.580;2023-02-28T10:11:43;100112.19;;;0.00;57.36
21760;BME280;11041;50.854;20.580;2023-02-28T10:14:21;100122.31;;;0.11;57.57
21760;BME280;11041;50.854;20.580;2023-02-28T10:17:13;100123.38;;;0.10;56.39
21760;BME280;11041;50.854;20.580;2023-02-28T10:20:22;100130.22;;;0.13;56.76
21760;BME280;11041;50.854;20.580;2023-02-28T10:23:20;100129.16;;;0.20;57.53
21760;BME280;11041;50.854;20.580;2023-02-28T10:26:05;100119.78;;;0.30;57.94
21760;BME280;11041;50.854;20.580;2023-02-28T10:28:36;100130.50;;;0.43;56.35
21760;BME280;11041;50.854;20.580;2023-02-28T10:31:03;100123.84;;;0.46;56.49
21760;BME280;11041;50.854;20.580;2023-02-28T10:33:35;100119.28;;;0.46;55.00
21760;BME280;11041;50.854;20.580;2023-02-28T10:36:05;100115.97;;;0.44;54.36
21760;BME280;11041;50.854;20.580;2023-02-28T10:38:39;100117.56;;;0.58;54.38
21760;BME280;11041;50.854;20.580;2023-02-28T10:44:22;100113.31;;;0.69;55.38
21760;BME280;11041;50.854;20.580;2023-02-28T10:46:51;100108.38;;;0.59;55.50
21760;BME280;11041;50.854;20.580;2023-02-28T10:49:26;100106.31;;;0.61;55.36
21760;BME280;11041;50.854;20.580;2023-02-28T10:51:59;100106.47;;;0.67;56.63
21760;BME280;11041;50.854;20.580;2023-02-28T10:54:34;100100.75;;;0.81;57.98
21760;BME280;11041;50.854;20.580;2023-02-28T10:57:23;100102.28;;;1.02;56.95
21760;BME280;11041;50.854;20.580;2023-02-28T11:00:20;100101.25;;;1.03;54.88
21760;BME280;11041;50.854;20.580;2023-02-28T11:02:48;100089.22;;;0.99;53.28
21760;BME280;11041;50.854;20.580;2023-02-28T11:05:31;100102.00;;;1.11;54.10
21760;BME280;11041;50.854;20.580;2023-02-28T11:08:18;100100.53;;;1.15;53.07
21760;BME280;11041;50.854;20.580;2023-02-28T11:10:53;100091.88;;;1.06;53.29
21760;BME280;11041;50.854;20.580;2023-02-28T11:13:33;100089.97;;;1.06;52.84
21760;BME280;11041;50.854;20.580;2023-02-28T11:16:06;100090.53;;;1.15;53.22
21760;BME280;11041;50.854;20.580;2023-02-28T11:18:59;100090.78;;;1.32;53.94
21760;BME280;11041;50.854;20.580;2023-02-28T11:21:34;100082.72;;;1.51;54.59
21760;BME280;11041;50.854;20.580;2023-02-28T11:26:57;100083.94;;;1.73;53.98
21760;BME280;11041;50.854;20.580;2023-02-28T11:29:31;100078.25;;;1.81;52.74
21760;BME280;11041;50.854;20.580;2023-02-28T11:32:13;100091.88;;;1.93;53.34
21760;BME280;11041;50.854;20.580;2023-02-28T11:34:43;100093.84;;;1.86;51.46
21760;BME280;11041;50.854;20.580;2023-02-28T11:37:20;100078.53;;;1.73;52.00
21760;BME280;11041;50.854;20.580;2023-02-28T11:39:47;100087.56;;;1.67;51.69
21760;BME280;11041;50.854;20.580;2023-02-28T11:42:55;100077.19;;;1.64;52.33
21760;BME280;11041;50.854;20.580;2023-02-28T11:45:44;100084.41;;;1.52;52.38
21760;BME280;11041;50.854;20.580;2023-02-28T11:48:32;100078.63;;;1.66;52.95
21760;BME280;11041;50.854;20.580;2023-02-28T11:52:10;100083.66;;;1.81;53.37
21760;BME280;11041;50.854;20.580;2023-02-28T12:06:33;100059.03;;;2.01;52.12
21760;BME280;11041;50.854;20.580;2023-02-28T12:26:57;100041.28;;;2.35;51.49
21760;BME280;11041;50.854;20.580;2023-02-28T12:29:55;100044.50;;;2.44;50.90
21760;BME280;11041;50.854;20.580;2023-02-28T12:32:45;100036.97;;;2.46;50.89
21760;BME280;11041;50.854;20.580;2023-02-28T12:35:22;100033.91;;;2.54;50.78
21760;BME280;11041;50.854;20.580;2023-02-28T12:38:13;100039.47;;;2.60;50.75
21760;BME280;11041;50.854;20.580;2023-02-28T12:41:36;100017.41;;;2.56;50.52
21760;BME280;11041;50.854;20.580;2023-02-28T12:44:32;100020.19;;;2.80;50.66
21760;BME280;11041;50.854;20.580;2023-02-28T12:47:05;100018.56;;;2.90;50.30
21760;BME280;11041;50.854;20.580;2023-02-28T12:52:28;100000.81;;;2.76;51.13
21760;BME280;11041;50.854;20.580;2023-02-28T12:55:23;100002.13;;;2.73;50.93
21760;BME280;11041;50.854;20.580;2023-02-28T13:05:06;100005.00;;;3.02;51.03
21760;BME280;11041;50.854;20.580;2023-02-28T13:10:16;100002.53;;;3.36;49.93
21760;BME280;11041;50.854;20.580;2023-02-28T13:12:51;99996.59;;;3.39;50.00
21760;BME280;11041;50.854;20.580;2023-02-28T13:15:23;100004.31;;;3.30;49.55
21760;BME280;11041;50.854;20.580;2023-02-28T13:17:57;99981.88;;;3.23;49.75
21760;BME280;11041;50.854;20.580;2023-02-28T13:20:47;99996.63;;;3.27;49.13
21760;BME280;11041;50.854;20.580;2023-02-28T13:23:59;99984.47;;;3.18;49.48
21760;BME280;11041;50.854;20.580;2023-02-28T13:37:42;99982.44;;;3.37;49.17
21760;BME280;11041;50.854;20.580;2023-02-28T13:42:48;99978.06;;;3.24;49.77
21760;BME280;11041;50.854;20.580;2023-02-28T13:45:30;99966.28;;;3.30;49.56
21760;BME280;11041;50.854;20.580;2023-02-28T13:48:01;99983.59;;;3.41;49.58
21760;BME280;11041;50.854;20.580;2023-02-28T13:50:38;99978.19;;;3.41;50.60
21760;BME280;11041;50.854;20.580;2023-02-28T13:57:09;99990.00;;;3.58;50.71
21760;BME280;11041;50.854;20.580;2023-02-28T13:59:50;99982.41;;;3.60;49.64
21760;BME280;11041;50.854;20.580;2023-02-28T14:05:34;99977.25;;;3.24;49.85
21760;BME280;11041;50.854;20.580;2023-02-28T14:08:15;99972.63;;;3.24;49.88
21760;BME280;11041;50.854;20.580;2023-02-28T14:10:50;99981.88;;;3.23;50.60
21760;BME280;11041;50.854;20.580;2023-02-28T14:13:42;99961.44;;;3.20;50.31
21760;BME280;11041;50.854;20.580;2023-02-28T14:16:26;99971.00;;;3.23;50.60
21760;BME280;11041;50.854;20.580;2023-02-28T14:19:12;99976.88;;;3.32;50.23
21760;BME280;11041;50.854;20.580;2023-02-28T14:22:36;99967.91;;;3.31;51.01
21760;BME280;11041;50.854;20.580;2023-02-28T14:25:43;99968.28;;;3.35;50.72
21760;BME280;11041;50.854;20.580;2023-02-28T14:37:26;99973.09;;;3.45;50.37
21760;BME280;11041;50.854;20.580;2023-02-28T14:39:53;99966.00;;;3.32;50.39
21760;BME280;11041;50.854;20.580;2023-02-28T14:42:36;99959.88;;;3.25;49.72
21760;BME280;11041;50.854;20.580;2023-02-28T14:45:04;99965.69;;;3.16;50.46
21760;BME280;11041;50.854;20.580;2023-02-28T14:47:35;99966.28;;;3.18;51.06
21760;BME280;11041;50.854;20.580;2023-02-28T14:50:04;99966.16;;;3.13;50.79
21760;BME280;11041;50.854;20.580;2023-02-28T14:52:32;99958.25;;;3.12;50.72
21760;BME280;11041;50.854;20.580;2023-02-28T14:55:09;99954.34;;;3.08;51.29
21760;BME280;11041;50.854;20.580;2023-02-28T14:58:02;99947.50;;;3.05;52.25
21760;BME280;11041;50.854;20.580;2023-02-28T15:00:52;99953.88;;;3.11;51.75
21760;BME280;11041;50.854;20.580;2023-02-28T15:03:31;99947.16;;;3.02;51.24